Lisbon, Portugal

9:55 AM WEST on October 22, 2014 (GMT +0100)
Lisbon | Change Station
CLOSE
Current Station
Airport
Location: Lisbon,
Elevation: 404 ft
Nearby Weather Stations

Elev 404 ft 38.78 °N, 9.14 °W | Updated 25 minutes ago

Clear
Clear
73 °F
Feels Like 73 °F
N
4
Wind Variable Wind from North

Today
High -- | Low -- °F
--% Chance of Precip.
Yesterday
High -- | Low -- °F
Precip. -- in
7:52 AM 6:48 PM
Waning Crescent, 2% visible
Pressure 30.30 in
Visibility -9999.0 miles
Clouds
Dew Point 55 °F
Humidity 53%
Rainfall 0.00 in
Snow Depth Not available.
UV Not available.
Pollen Not available.
Air Quality Not available.
Flu Activity Not available.
METAR LPPT 220830Z 35003KT CAVOK 23/13 Q1026

More Conditions Fewer Conditions

Pressure 30.30 in
Visibility -9999.0 miles
Clouds
Dew Point 55 °F
Humidity 53%
Rainfall 0.00 in
Snow Depth Not available.
UV Not available.
Pollen Not available.
Air Quality Not available.
Flu Activity Not available.
METAR LPPT 220830Z 35003KT CAVOK 23/13 Q1026

More Conditions Fewer Conditions

10-Day Weather Forecast

Almanac

Astronomy

Oct. 22, 2014 Rise Set
Actual Time 7:52 AM WEST 6:48 PM WEST
Civil Twilight 7:25 AM WEST 7:15 PM WEST
Nautical Twilight 6:54 AM WEST 7:46 PM WEST
Astronomical Twilight 6:23 AM WEST 8:17 PM WEST
Moon 6:22 AM WEST 6:07 PM WEST
Length of Visible Light 11h 50m
Length of Day
10h 56m
Tomorrow will be 2m 21s shorter.
Waning Crescent, 2% of the Moon is Illuminated
Today
Waning Crescent
Oct 23
New
Oct 30
First Quarter
Nov 6
Full
Nov 14
Last Quarter

Yesterday's Extremes

Country Highs Country Lows

Community

WunderPhotos

Upload Photos

1,763,889 photos uploaded!

Nearby

Snow Depth

Not available.

Earthquake Activity

City Distance Mag. Time & Date
No recent earthquake activity has been reported nearby.
Minimum magnitude displayed is 2.5.

Coastal Water Temperatures

Place Temperature
No Stations Reporting

Nearby Weather Stations